Terminal Aerodrome Forecast
Issued by NWS Jackson, KY

Home | Current Version | Previous Version | Text Only | Print | Product List | Glossary On
Versions: 1 2 3 4 5 6 7 8 9 10 11 12 13 14 15 16 17 18 19 20 21
684
FTUS43 KJKL 192003 AAA
TAFLOZ
TAF AMD
KLOZ 192003Z 1920/2018 29008KT P6SM SCT025 BKN035
      TEMPO 1920/1924 28010G18KT BKN025
     FM200000 VRB05KT P6SM SCT200=

USA.gov is the U.S. government's official web portal to all federal, state and local government web resources and services.